Westfield Center, Ohio
Current Conditions -  °F | °C
As of 9:56 PM on Saturday 25 Oct 2014 (Local Time) from KBJJ Reporting Station
Light Rain Light Rain  
Wind Chill: 60°   Ceiling: Unl
Heat Index: 60°   Visibility: 10mi
Dew Point: 35°   Wind: 17mph
Humidity: 39%   Direction: 300°WNW
Pressure: 29.83"   Gusts: 25mph
Location:  41.03°N, 81.93°W
Report Text: KBJJ 260156Z AUTO 30015G22KT 10SM -RA CLR 16/02 A2983 RMK AO2 RAB52 SLP100 P0000 T01560017 TSNO
Loading
Personal Weather Stations






























Interactive Weather Map
Tropical Storm Tracking
New forecast layout! Learn more

10-Day Weather Forecast

Advertisements
Track Severe Weather on mobile